Terminal Aerodrome Forecast
Issued by NWS Newport/Morehead City, NC

Home | Current Version | Previous Version | Graphics & Text | Print | Product List | Glossary On
Versions: 1 2 3 4 5 6 7 8 9 10 11 12 13 14 15 16 17 18 19 20 21 22 23 24 25 26 27 28
432
FTUS42 KMHX 010707 AAA
TAFEWN
TAF AMD
KEWN 010707Z 0107/0206 08006KT P6SM SCT007 OVC015
     FM010800 10005KT P6SM OVC007
     FM011200 14006KT P6SM BKN015
     FM011400 17010G17KT P6SM SCT040 BKN100
     FM012300 20007KT P6SM BKN040=

USA.gov is the U.S. government's official web portal to all federal, state and local government web resources and services.